VTPH

Details ICAO VTPH (HHQ)
Name Hua Hin
Region Thailand
Timezone Asia/Bangkok (UTC+7.0)
Plans Departing 10
Arriving 13
Stats Elevation 62 ft / 19 m (AMSL)
Location 12.636225° 99.951530°
Runways 1
Magnetic Variation 0.522° W
Sunrise 2017-12-17 23:36:33 UTC / 2017-12-18 06:36:33 Local
Sunset 2017-12-18 10:59:30 UTC / 2017-12-18 17:59:30 Local
Advertisement - Login to hide

Runways

ID Width Length Bearing (true) Bearing (mag) Surface Threshold Offset Overrun Length
16 115 ft / 35 m 6,935 ft / 2,114 m 159.78° 160.30° Asphalt 0 ft / 0 m 197 ft / 60 m
34 115 ft / 35 m 6,935 ft / 2,114 m 339.78° 340.30° Asphalt 492 ft / 150 m 95 ft / 29 m

Map

Weather


0- 5 10 15 20 25 30 35+ Temperature / ° C

Clouds and Precipitation
Forecast for 2017-12-18 00:00 UTC. Updated 33 minutes ago

Ground ~20,000 ft ~40,000 ft Winds

METAR

Not found

TAF

TAF VTPH 171700Z 1718/1818 34005KT 9999 FEW032 BECMG 1802/1804 02015KT BECMG 1811/1813 33005KT

Frequencies

Ground 121.90 MHz GND
Approach 126.20 MHz APP
Tower 122.70 MHz TWR
Warning: Do not use this data for real-world aviation or navigation. No guarantee of current accuracy is given.